sensor_id;sensor_type;location;lat;lon;timestamp;temperature;humidity
12700;DHT22;6414;49.570;6.060;2022-10-23T00:00:30;11.90;99.90
12700;DHT22;6414;49.570;6.060;2022-10-23T00:03:16;11.90;99.90
12700;DHT22;6414;49.570;6.060;2022-10-23T00:06:02;12.00;99.90
12700;DHT22;6414;49.570;6.060;2022-10-23T00:08:47;12.00;99.90
12700;DHT22;6414;49.570;6.060;2022-10-23T00:11:32;12.00;99.90
12700;DHT22;6414;49.570;6.060;2022-10-23T00:14:18;12.10;99.90
12700;DHT22;6414;49.570;6.060;2022-10-23T00:17:03;12.00;99.90
12700;DHT22;6414;49.570;6.060;2022-10-23T00:19:48;12.10;99.90
12700;DHT22;6414;49.570;6.060;2022-10-23T00:22:35;12.10;99.90
12700;DHT22;6414;49.570;6.060;2022-10-23T00:25:20;12.10;99.90
12700;DHT22;6414;49.570;6.060;2022-10-23T00:28:05;12.10;99.90
12700;DHT22;6414;49.570;6.060;2022-10-23T00:30:50;12.10;99.90
12700;DHT22;6414;49.570;6.060;2022-10-23T00:33:36;12.10;99.90
12700;DHT22;6414;49.570;6.060;2022-10-23T00:36:21;12.10;99.90
12700;DHT22;6414;49.570;6.060;2022-10-23T00:39:07;12.10;99.90
12700;DHT22;6414;49.570;6.060;2022-10-23T00:41:52;12.10;99.90
12700;DHT22;6414;49.570;6.060;2022-10-23T00:47:26;12.20;99.90
12700;DHT22;6414;49.570;6.060;2022-10-23T00:50:12;12.20;99.90
12700;DHT22;6414;49.570;6.060;2022-10-23T00:52:58;12.10;99.90
12700;DHT22;6414;49.570;6.060;2022-10-23T00:55:44;12.10;99.90
12700;DHT22;6414;49.570;6.060;2022-10-23T00:58:31;12.20;99.90
12700;DHT22;6414;49.570;6.060;2022-10-23T01:01:19;12.20;99.90
12700;DHT22;6414;49.570;6.060;2022-10-23T01:04:02;12.20;99.90
12700;DHT22;6414;49.570;6.060;2022-10-23T01:13:11;12.10;99.90
12700;DHT22;6414;49.570;6.060;2022-10-23T01:16:10;12.10;99.90
12700;DHT22;6414;49.570;6.060;2022-10-23T01:18:47;12.10;99.90
12700;DHT22;6414;49.570;6.060;2022-10-23T01:21:53;12.10;99.90
12700;DHT22;6414;49.570;6.060;2022-10-23T01:30:14;12.00;99.90
12700;DHT22;6414;49.570;6.060;2022-10-23T01:33:12;12.00;99.90
12700;DHT22;6414;49.570;6.060;2022-10-23T01:36:00;11.90;99.90
12700;DHT22;6414;49.570;6.060;2022-10-23T01:39:07;12.00;99.90
12700;DHT22;6414;49.570;6.060;2022-10-23T01:41:54;12.00;99.90
12700;DHT22;6414;49.570;6.060;2022-10-23T01:44:43;11.90;99.90
12700;DHT22;6414;49.570;6.060;2022-10-23T01:47:26;11.90;99.90
12700;DHT22;6414;49.570;6.060;2022-10-23T01:50:11;11.90;99.90
12700;DHT22;6414;49.570;6.060;2022-10-23T01:52:57;11.80;99.90
12700;DHT22;6414;49.570;6.060;2022-10-23T01:55:42;11.80;99.90
12700;DHT22;6414;49.570;6.060;2022-10-23T01:58:27;11.80;99.90
12700;DHT22;6414;49.570;6.060;2022-10-23T02:01:14;11.80;99.90
12700;DHT22;6414;49.570;6.060;2022-10-23T02:03:59;11.80;99.90
12700;DHT22;6414;49.570;6.060;2022-10-23T02:06:44;11.80;99.90
12700;DHT22;6414;49.570;6.060;2022-10-23T02:09:30;11.80;99.90
12700;DHT22;6414;49.570;6.060;2022-10-23T02:13:09;11.90;99.90
12700;DHT22;6414;49.570;6.060;2022-10-23T02:15:41;11.90;99.90
12700;DHT22;6414;49.570;6.060;2022-10-23T02:18:42;11.90;99.90
12700;DHT22;6414;49.570;6.060;2022-10-23T02:21:30;11.90;99.90
12700;DHT22;6414;49.570;6.060;2022-10-23T02:24:12;11.90;99.90
12700;DHT22;6414;49.570;6.060;2022-10-23T02:27:01;11.80;99.90
12700;DHT22;6414;49.570;6.060;2022-10-23T02:29:51;11.80;99.90
12700;DHT22;6414;49.570;6.060;2022-10-23T02:32:34;11.70;99.90
12700;DHT22;6414;49.570;6.060;2022-10-23T02:35:20;11.70;99.90
12700;DHT22;6414;49.570;6.060;2022-10-23T02:38:34;11.70;99.90
12700;DHT22;6414;49.570;6.060;2022-10-23T02:44:13;11.60;99.90
12700;DHT22;6414;49.570;6.060;2022-10-23T02:53:38;11.50;99.90
12700;DHT22;6414;49.570;6.060;2022-10-23T02:56:31;11.60;99.90
12700;DHT22;6414;49.570;6.060;2022-10-23T02:59:37;11.50;99.90
12700;DHT22;6414;49.570;6.060;2022-10-23T03:02:27;11.40;99.90
12700;DHT22;6414;49.570;6.060;2022-10-23T03:05:10;11.40;99.90
12700;DHT22;6414;49.570;6.060;2022-10-23T03:07:55;11.40;99.90
12700;DHT22;6414;49.570;6.060;2022-10-23T03:10:40;11.40;99.90
12700;DHT22;6414;49.570;6.060;2022-10-23T03:13:25;11.40;99.90
12700;DHT22;6414;49.570;6.060;2022-10-23T03:16:11;11.30;99.90
12700;DHT22;6414;49.570;6.060;2022-10-23T03:18:56;11.30;99.90
12700;DHT22;6414;49.570;6.060;2022-10-23T03:21:41;11.30;99.90
12700;DHT22;6414;49.570;6.060;2022-10-23T03:24:28;11.20;99.90
12700;DHT22;6414;49.570;6.060;2022-10-23T03:27:13;11.20;99.90
12700;DHT22;6414;49.570;6.060;2022-10-23T03:29:59;10.90;99.90
12700;DHT22;6414;49.570;6.060;2022-10-23T03:32:45;10.90;99.90
12700;DHT22;6414;49.570;6.060;2022-10-23T03:35:31;11.00;99.90
12700;DHT22;6414;49.570;6.060;2022-10-23T03:38:16;10.90;99.90
12700;DHT22;6414;49.570;6.060;2022-10-23T03:41:02;10.80;99.90
12700;DHT22;6414;49.570;6.060;2022-10-23T03:43:48;10.80;99.90
12700;DHT22;6414;49.570;6.060;2022-10-23T03:46:33;10.70;99.90
12700;DHT22;6414;49.570;6.060;2022-10-23T03:49:18;10.60;99.90
12700;DHT22;6414;49.570;6.060;2022-10-23T03:52:04;10.50;99.90
12700;DHT22;6414;49.570;6.060;2022-10-23T03:54:49;10.50;99.90
12700;DHT22;6414;49.570;6.060;2022-10-23T03:57:35;10.50;99.90
12700;DHT22;6414;49.570;6.060;2022-10-23T04:00:20;10.50;99.90
12700;DHT22;6414;49.570;6.060;2022-10-23T04:03:05;10.40;99.90
12700;DHT22;6414;49.570;6.060;2022-10-23T04:05:51;10.50;99.90
12700;DHT22;6414;49.570;6.060;2022-10-23T04:08:37;10.50;99.90
12700;DHT22;6414;49.570;6.060;2022-10-23T04:11:22;10.50;99.90
12700;DHT22;6414;49.570;6.060;2022-10-23T04:14:09;10.50;99.90
12700;DHT22;6414;49.570;6.060;2022-10-23T04:16:52;10.50;99.90
12700;DHT22;6414;49.570;6.060;2022-10-23T04:19:38;10.50;99.90
12700;DHT22;6414;49.570;6.060;2022-10-23T04:22:23;10.50;99.90
12700;DHT22;6414;49.570;6.060;2022-10-23T04:25:09;10.40;99.90
12700;DHT22;6414;49.570;6.060;2022-10-23T04:27:54;10.40;99.90
12700;DHT22;6414;49.570;6.060;2022-10-23T04:30:39;10.40;99.90
12700;DHT22;6414;49.570;6.060;2022-10-23T04:33:25;10.40;99.90
12700;DHT22;6414;49.570;6.060;2022-10-23T04:36:10;10.40;99.90
12700;DHT22;6414;49.570;6.060;2022-10-23T04:38:55;10.50;99.90
12700;DHT22;6414;49.570;6.060;2022-10-23T04:41:40;10.50;99.90
12700;DHT22;6414;49.570;6.060;2022-10-23T04:44:26;10.60;99.90
12700;DHT22;6414;49.570;6.060;2022-10-23T04:47:11;10.70;99.90
12700;DHT22;6414;49.570;6.060;2022-10-23T04:49:56;10.70;99.90
12700;DHT22;6414;49.570;6.060;2022-10-23T04:52:41;10.70;99.90
12700;DHT22;6414;49.570;6.060;2022-10-23T04:55:27;10.70;99.90
12700;DHT22;6414;49.570;6.060;2022-10-23T04:58:12;10.70;99.90
12700;DHT22;6414;49.570;6.060;2022-10-23T05:00:57;10.70;99.90
12700;DHT22;6414;49.570;6.060;2022-10-23T05:03:43;10.70;99.90
12700;DHT22;6414;49.570;6.060;2022-10-23T05:06:28;10.80;99.90
12700;DHT22;6414;49.570;6.060;2022-10-23T05:09:14;10.80;99.90
12700;DHT22;6414;49.570;6.060;2022-10-23T05:11:59;10.70;99.90
12700;DHT22;6414;49.570;6.060;2022-10-23T05:14:45;10.70;99.90
12700;DHT22;6414;49.570;6.060;2022-10-23T05:17:34;10.70;99.90
12700;DHT22;6414;49.570;6.060;2022-10-23T05:20:19;10.70;99.90
12700;DHT22;6414;49.570;6.060;2022-10-23T05:23:05;10.70;99.90
12700;DHT22;6414;49.570;6.060;2022-10-23T05:25:49;10.70;99.90
12700;DHT22;6414;49.570;6.060;2022-10-23T05:28:34;10.70;99.90
12700;DHT22;6414;49.570;6.060;2022-10-23T05:31:19;10.70;99.90
12700;DHT22;6414;49.570;6.060;2022-10-23T05:34:05;10.60;99.90
12700;DHT22;6414;49.570;6.060;2022-10-23T05:36:50;10.70;99.90
12700;DHT22;6414;49.570;6.060;2022-10-23T05:39:36;10.60;99.90
12700;DHT22;6414;49.570;6.060;2022-10-23T05:42:21;10.60;99.90
12700;DHT22;6414;49.570;6.060;2022-10-23T05:45:06;10.60;99.90
12700;DHT22;6414;49.570;6.060;2022-10-23T05:49:26;10.50;99.90
12700;DHT22;6414;49.570;6.060;2022-10-23T05:52:12;10.50;99.90
12700;DHT22;6414;49.570;6.060;2022-10-23T05:54:57;10.50;99.90
12700;DHT22;6414;49.570;6.060;2022-10-23T05:57:42;10.40;99.90
12700;DHT22;6414;49.570;6.060;2022-10-23T06:00:28;10.50;99.90
12700;DHT22;6414;49.570;6.060;2022-10-23T06:03:13;10.50;99.90
12700;DHT22;6414;49.570;6.060;2022-10-23T06:06:00;10.40;99.90
12700;DHT22;6414;49.570;6.060;2022-10-23T06:08:46;10.40;99.90
12700;DHT22;6414;49.570;6.060;2022-10-23T06:11:31;10.40;99.90
12700;DHT22;6414;49.570;6.060;2022-10-23T06:14:17;10.40;99.90
12700;DHT22;6414;49.570;6.060;2022-10-23T06:17:02;10.40;99.90
12700;DHT22;6414;49.570;6.060;2022-10-23T06:19:48;10.50;99.90
12700;DHT22;6414;49.570;6.060;2022-10-23T06:22:33;10.50;99.90
12700;DHT22;6414;49.570;6.060;2022-10-23T06:25:19;10.50;99.90
12700;DHT22;6414;49.570;6.060;2022-10-23T06:28:04;10.50;99.90
12700;DHT22;6414;49.570;6.060;2022-10-23T06:30:50;10.50;99.90
12700;DHT22;6414;49.570;6.060;2022-10-23T06:33:35;10.60;99.90
12700;DHT22;6414;49.570;6.060;2022-10-23T06:36:21;10.60;99.90
12700;DHT22;6414;49.570;6.060;2022-10-23T06:39:07;10.60;99.90
12700;DHT22;6414;49.570;6.060;2022-10-23T06:41:52;10.70;99.90
12700;DHT22;6414;49.570;6.060;2022-10-23T06:44:37;10.60;99.90
12700;DHT22;6414;49.570;6.060;2022-10-23T06:47:22;10.70;99.90
12700;DHT22;6414;49.570;6.060;2022-10-23T06:50:08;10.90;99.90
12700;DHT22;6414;49.570;6.060;2022-10-23T06:52:53;10.90;99.90
12700;DHT22;6414;49.570;6.060;2022-10-23T06:55:39;11.00;99.90
12700;DHT22;6414;49.570;6.060;2022-10-23T06:58:24;11.10;99.90
12700;DHT22;6414;49.570;6.060;2022-10-23T07:01:10;11.20;99.90
12700;DHT22;6414;49.570;6.060;2022-10-23T07:03:55;11.20;99.90
12700;DHT22;6414;49.570;6.060;2022-10-23T07:06:40;11.30;99.90
12700;DHT22;6414;49.570;6.060;2022-10-23T07:09:25;11.30;99.90
12700;DHT22;6414;49.570;6.060;2022-10-23T07:12:11;11.30;99.90
12700;DHT22;6414;49.570;6.060;2022-10-23T07:14:57;11.50;99.90
12700;DHT22;6414;49.570;6.060;2022-10-23T07:17:42;11.50;99.90
12700;DHT22;6414;49.570;6.060;2022-10-23T07:20:27;11.50;99.90
12700;DHT22;6414;49.570;6.060;2022-10-23T07:23:13;11.60;99.90
12700;DHT22;6414;49.570;6.060;2022-10-23T07:26:05;11.70;99.90
12700;DHT22;6414;49.570;6.060;2022-10-23T07:28:47;11.80;99.90
12700;DHT22;6414;49.570;6.060;2022-10-23T07:31:32;11.90;99.90
12700;DHT22;6414;49.570;6.060;2022-10-23T07:34:17;11.90;99.90
12700;DHT22;6414;49.570;6.060;2022-10-23T07:37:03;12.00;99.90
12700;DHT22;6414;49.570;6.060;2022-10-23T07:39:48;12.00;99.90
12700;DHT22;6414;49.570;6.060;2022-10-23T07:42:35;12.00;99.90
12700;DHT22;6414;49.570;6.060;2022-10-23T07:45:20;12.00;99.90
12700;DHT22;6414;49.570;6.060;2022-10-23T07:48:05;12.00;99.90
12700;DHT22;6414;49.570;6.060;2022-10-23T07:50:50;12.00;99.90
12700;DHT22;6414;49.570;6.060;2022-10-23T07:53:36;12.00;99.90
12700;DHT22;6414;49.570;6.060;2022-10-23T07:56:25;12.10;99.90
12700;DHT22;6414;49.570;6.060;2022-10-23T07:59:09;12.10;99.90
12700;DHT22;6414;49.570;6.060;2022-10-23T08:01:52;12.20;99.90
12700;DHT22;6414;49.570;6.060;2022-10-23T08:04:37;12.20;99.90
12700;DHT22;6414;49.570;6.060;2022-10-23T08:07:22;12.20;99.90
12700;DHT22;6414;49.570;6.060;2022-10-23T08:10:08;12.30;99.90
12700;DHT22;6414;49.570;6.060;2022-10-23T08:12:53;12.30;99.90
12700;DHT22;6414;49.570;6.060;2022-10-23T08:15:39;12.30;99.90
12700;DHT22;6414;49.570;6.060;2022-10-23T08:18:24;12.30;99.90
12700;DHT22;6414;49.570;6.060;2022-10-23T08:21:10;12.30;99.90
12700;DHT22;6414;49.570;6.060;2022-10-23T08:23:55;12.30;99.90
12700;DHT22;6414;49.570;6.060;2022-10-23T08:26:40;12.20;99.90
12700;DHT22;6414;49.570;6.060;2022-10-23T08:29:26;12.30;99.90
12700;DHT22;6414;49.570;6.060;2022-10-23T08:32:11;12.30;99.90
12700;DHT22;6414;49.570;6.060;2022-10-23T08:34:57;12.30;99.90
12700;DHT22;6414;49.570;6.060;2022-10-23T08:37:43;12.30;99.90
12700;DHT22;6414;49.570;6.060;2022-10-23T08:40:28;12.40;99.90
12700;DHT22;6414;49.570;6.060;2022-10-23T08:46:03;12.30;99.90
12700;DHT22;6414;49.570;6.060;2022-10-23T08:48:48;12.20;99.90
12700;DHT22;6414;49.570;6.060;2022-10-23T08:51:36;12.20;99.90
12700;DHT22;6414;49.570;6.060;2022-10-23T08:54:28;12.30;99.90
12700;DHT22;6414;49.570;6.060;2022-10-23T08:57:10;12.40;99.90
12700;DHT22;6414;49.570;6.060;2022-10-23T08:59:58;12.60;99.90
12700;DHT22;6414;49.570;6.060;2022-10-23T09:02:52;12.70;99.90
12700;DHT22;6414;49.570;6.060;2022-10-23T09:05:36;12.80;99.90
12700;DHT22;6414;49.570;6.060;2022-10-23T09:08:28;12.80;99.90
12700;DHT22;6414;49.570;6.060;2022-10-23T09:17:24;13.10;99.90
12700;DHT22;6414;49.570;6.060;2022-10-23T09:20:26;13.60;99.90
12700;DHT22;6414;49.570;6.060;2022-10-23T09:23:21;14.40;99.90
12700;DHT22;6414;49.570;6.060;2022-10-23T09:26:15;14.40;99.90
12700;DHT22;6414;49.570;6.060;2022-10-23T09:29:12;14.10;99.90
12700;DHT22;6414;49.570;6.060;2022-10-23T09:31:51;15.00;99.90
12700;DHT22;6414;49.570;6.060;2022-10-23T09:34:36;15.30;99.90
12700;DHT22;6414;49.570;6.060;2022-10-23T09:37:23;15.80;99.90
12700;DHT22;6414;49.570;6.060;2022-10-23T09:40:24;15.70;99.90
12700;DHT22;6414;49.570;6.060;2022-10-23T09:43:17;15.60;99.90
12700;DHT22;6414;49.570;6.060;2022-10-23T09:46:00;15.70;99.90
12700;DHT22;6414;49.570;6.060;2022-10-23T09:48:44;15.70;99.90
12700;DHT22;6414;49.570;6.060;2022-10-23T09:51:29;15.60;99.90
12700;DHT22;6414;49.570;6.060;2022-10-23T09:54:15;15.90;99.90
12700;DHT22;6414;49.570;6.060;2022-10-23T09:57:05;15.80;99.90
12700;DHT22;6414;49.570;6.060;2022-10-23T09:59:50;15.50;99.90
12700;DHT22;6414;49.570;6.060;2022-10-23T10:02:35;15.50;99.90
12700;DHT22;6414;49.570;6.060;2022-10-23T10:05:22;15.50;99.90
12700;DHT22;6414;49.570;6.060;2022-10-23T10:08:34;15.60;99.90
12700;DHT22;6414;49.570;6.060;2022-10-23T10:11:21;15.90;99.90
12700;DHT22;6414;49.570;6.060;2022-10-23T10:17:32;16.00;99.90
12700;DHT22;6414;49.570;6.060;2022-10-23T10:20:18;16.00;99.90
12700;DHT22;6414;49.570;6.060;2022-10-23T10:26:39;16.40;99.90
12700;DHT22;6414;49.570;6.060;2022-10-23T10:29:39;16.50;99.90
12700;DHT22;6414;49.570;6.060;2022-10-23T10:50:17;16.60;99.90
12700;DHT22;6414;49.570;6.060;2022-10-23T10:53:27;16.60;99.90
12700;DHT22;6414;49.570;6.060;2022-10-23T10:56:13;16.70;99.90
12700;DHT22;6414;49.570;6.060;2022-10-23T10:58:59;16.80;99.90
12700;DHT22;6414;49.570;6.060;2022-10-23T11:04:44;16.90;99.90
12700;DHT22;6414;49.570;6.060;2022-10-23T11:07:27;16.90;99.90
12700;DHT22;6414;49.570;6.060;2022-10-23T11:10:15;17.10;99.90
12700;DHT22;6414;49.570;6.060;2022-10-23T11:12:59;17.10;99.90
12700;DHT22;6414;49.570;6.060;2022-10-23T11:15:44;17.20;99.90
12700;DHT22;6414;49.570;6.060;2022-10-23T11:18:29;17.10;99.90
12700;DHT22;6414;49.570;6.060;2022-10-23T11:21:19;17.10;99.90
12700;DHT22;6414;49.570;6.060;2022-10-23T11:27:27;17.10;99.90
12700;DHT22;6414;49.570;6.060;2022-10-23T11:30:18;17.00;99.90
12700;DHT22;6414;49.570;6.060;2022-10-23T11:36:14;17.10;99.90
12700;DHT22;6414;49.570;6.060;2022-10-23T11:39:04;17.30;99.90
12700;DHT22;6414;49.570;6.060;2022-10-23T11:44:46;17.40;99.90
12700;DHT22;6414;49.570;6.060;2022-10-23T11:47:37;17.30;99.90
12700;DHT22;6414;49.570;6.060;2022-10-23T11:50:28;17.50;99.90
12700;DHT22;6414;49.570;6.060;2022-10-23T12:08:21;17.80;99.90
12700;DHT22;6414;49.570;6.060;2022-10-23T12:11:22;17.80;99.90
12700;DHT22;6414;49.570;6.060;2022-10-23T12:13:51;17.90;99.90
12700;DHT22;6414;49.570;6.060;2022-10-23T12:16:36;17.90;99.90
12700;DHT22;6414;49.570;6.060;2022-10-23T12:19:23;18.20;99.90
12700;DHT22;6414;49.570;6.060;2022-10-23T12:22:07;18.20;99.90
12700;DHT22;6414;49.570;6.060;2022-10-23T12:24:59;18.20;99.90
12700;DHT22;6414;49.570;6.060;2022-10-23T12:30:41;18.40;99.90
12700;DHT22;6414;49.570;6.060;2022-10-23T12:34:21;18.70;99.90
12700;DHT22;6414;49.570;6.060;2022-10-23T12:39:33;18.70;99.90
12700;DHT22;6414;49.570;6.060;2022-10-23T12:42:25;18.80;99.90
12700;DHT22;6414;49.570;6.060;2022-10-23T12:47:54;19.00;99.90
12700;DHT22;6414;49.570;6.060;2022-10-23T12:50:40;18.90;99.90
12700;DHT22;6414;49.570;6.060;2022-10-23T12:53:27;19.00;99.90
12700;DHT22;6414;49.570;6.060;2022-10-23T12:56:12;18.90;99.90
12700;DHT22;6414;49.570;6.060;2022-10-23T12:58:57;18.90;99.90
12700;DHT22;6414;49.570;6.060;2022-10-23T13:01:45;18.90;99.90
12700;DHT22;6414;49.570;6.060;2022-10-23T13:04:31;19.00;99.90
12700;DHT22;6414;49.570;6.060;2022-10-23T13:07:17;19.20;99.90
12700;DHT22;6414;49.570;6.060;2022-10-23T13:10:02;19.20;99.90
12700;DHT22;6414;49.570;6.060;2022-10-23T13:12:51;19.10;99.90
12700;DHT22;6414;49.570;6.060;2022-10-23T13:15:38;19.00;99.90
12700;DHT22;6414;49.570;6.060;2022-10-23T13:18:23;19.00;99.90
12700;DHT22;6414;49.570;6.060;2022-10-23T13:21:15;19.00;99.90
12700;DHT22;6414;49.570;6.060;2022-10-23T13:23:56;19.00;99.90
12700;DHT22;6414;49.570;6.060;2022-10-23T13:26:42;19.20;99.90
12700;DHT22;6414;49.570;6.060;2022-10-23T13:29:28;19.30;99.90
12700;DHT22;6414;49.570;6.060;2022-10-23T13:32:22;19.40;99.90
12700;DHT22;6414;49.570;6.060;2022-10-23T13:35:19;19.40;99.90
12700;DHT22;6414;49.570;6.060;2022-10-23T13:37:49;19.30;99.90
12700;DHT22;6414;49.570;6.060;2022-10-23T13:40:35;19.30;99.90
12700;DHT22;6414;49.570;6.060;2022-10-23T13:43:21;19.40;99.90
12700;DHT22;6414;49.570;6.060;2022-10-23T13:46:11;19.40;99.90
12700;DHT22;6414;49.570;6.060;2022-10-23T13:48:51;19.40;99.90
12700;DHT22;6414;49.570;6.060;2022-10-23T13:51:43;19.40;99.90
12700;DHT22;6414;49.570;6.060;2022-10-23T13:54:27;19.40;99.90
12700;DHT22;6414;49.570;6.060;2022-10-23T13:57:12;19.40;99.90
12700;DHT22;6414;49.570;6.060;2022-10-23T13:59:56;19.50;99.90
12700;DHT22;6414;49.570;6.060;2022-10-23T14:02:42;19.40;99.90
12700;DHT22;6414;49.570;6.060;2022-10-23T14:05:29;19.40;99.90
12700;DHT22;6414;49.570;6.060;2022-10-23T14:08:14;19.40;99.90
12700;DHT22;6414;49.570;6.060;2022-10-23T14:10:59;19.40;99.90
12700;DHT22;6414;49.570;6.060;2022-10-23T14:13:46;19.40;99.90
12700;DHT22;6414;49.570;6.060;2022-10-23T14:16:31;19.50;99.90
12700;DHT22;6414;49.570;6.060;2022-10-23T14:19:18;19.50;99.90
12700;DHT22;6414;49.570;6.060;2022-10-23T14:22:03;19.40;99.90
12700;DHT22;6414;49.570;6.060;2022-10-23T14:24:48;19.50;99.90
12700;DHT22;6414;49.570;6.060;2022-10-23T14:27:34;19.40;99.90
12700;DHT22;6414;49.570;6.060;2022-10-23T14:30:20;19.50;99.90
12700;DHT22;6414;49.570;6.060;2022-10-23T14:33:05;19.50;99.90
12700;DHT22;6414;49.570;6.060;2022-10-23T14:35:51;19.50;99.90
12700;DHT22;6414;49.570;6.060;2022-10-23T14:38:36;19.50;99.90
12700;DHT22;6414;49.570;6.060;2022-10-23T14:41:22;19.50;99.90
12700;DHT22;6414;49.570;6.060;2022-10-23T14:44:07;19.40;99.90
12700;DHT22;6414;49.570;6.060;2022-10-23T14:46:52;19.30;99.90
12700;DHT22;6414;49.570;6.060;2022-10-23T14:49:38;19.20;99.90
12700;DHT22;6414;49.570;6.060;2022-10-23T14:52:23;19.20;99.90
12700;DHT22;6414;49.570;6.060;2022-10-23T14:55:09;19.10;99.90
12700;DHT22;6414;49.570;6.060;2022-10-23T14:57:54;19.10;99.90
12700;DHT22;6414;49.570;6.060;2022-10-23T15:00:39;19.00;99.90
12700;DHT22;6414;49.570;6.060;2022-10-23T15:03:25;19.00;99.90
12700;DHT22;6414;49.570;6.060;2022-10-23T15:06:10;18.90;99.90
12700;DHT22;6414;49.570;6.060;2022-10-23T15:08:56;18.80;99.90
12700;DHT22;6414;49.570;6.060;2022-10-23T15:11:41;18.70;99.90
12700;DHT22;6414;49.570;6.060;2022-10-23T15:14:26;18.70;99.90
12700;DHT22;6414;49.570;6.060;2022-10-23T15:17:12;18.60;99.90
12700;DHT22;6414;49.570;6.060;2022-10-23T15:19:57;18.60;99.90
12700;DHT22;6414;49.570;6.060;2022-10-23T15:22:42;18.60;99.90
12700;DHT22;6414;49.570;6.060;2022-10-23T15:25:28;18.40;99.90
12700;DHT22;6414;49.570;6.060;2022-10-23T15:28:13;18.40;99.90
12700;DHT22;6414;49.570;6.060;2022-10-23T15:30:59;18.40;99.90
12700;DHT22;6414;49.570;6.060;2022-10-23T15:33:44;18.30;99.90
12700;DHT22;6414;49.570;6.060;2022-10-23T15:36:30;18.30;99.90
12700;DHT22;6414;49.570;6.060;2022-10-23T15:39:16;18.30;99.90
12700;DHT22;6414;49.570;6.060;2022-10-23T15:42:01;18.20;99.90
12700;DHT22;6414;49.570;6.060;2022-10-23T15:44:46;18.20;99.90
12700;DHT22;6414;49.570;6.060;2022-10-23T15:47:31;18.10;99.90
12700;DHT22;6414;49.570;6.060;2022-10-23T15:50:16;18.10;99.90
12700;DHT22;6414;49.570;6.060;2022-10-23T15:53:02;17.90;99.90
12700;DHT22;6414;49.570;6.060;2022-10-23T15:55:47;17.50;99.90
12700;DHT22;6414;49.570;6.060;2022-10-23T15:58:32;15.70;99.90
12700;DHT22;6414;49.570;6.060;2022-10-23T16:01:18;15.40;99.90
12700;DHT22;6414;49.570;6.060;2022-10-23T16:04:03;15.20;99.90
12700;DHT22;6414;49.570;6.060;2022-10-23T16:06:49;15.10;99.90
12700;DHT22;6414;49.570;6.060;2022-10-23T16:09:34;15.20;99.90
12700;DHT22;6414;49.570;6.060;2022-10-23T16:12:19;15.10;99.90
12700;DHT22;6414;49.570;6.060;2022-10-23T16:15:05;15.10;99.90
12700;DHT22;6414;49.570;6.060;2022-10-23T16:17:50;14.90;99.90
12700;DHT22;6414;49.570;6.060;2022-10-23T16:20:38;14.80;99.90
12700;DHT22;6414;49.570;6.060;2022-10-23T16:23:22;14.80;99.90
12700;DHT22;6414;49.570;6.060;2022-10-23T16:26:07;14.50;99.90
12700;DHT22;6414;49.570;6.060;2022-10-23T16:28:55;14.50;99.90
12700;DHT22;6414;49.570;6.060;2022-10-23T16:31:38;14.40;99.90
12700;DHT22;6414;49.570;6.060;2022-10-23T16:34:23;14.30;99.90
12700;DHT22;6414;49.570;6.060;2022-10-23T16:37:08;14.30;99.90
12700;DHT22;6414;49.570;6.060;2022-10-23T16:39:54;14.20;99.90
12700;DHT22;6414;49.570;6.060;2022-10-23T16:42:40;14.10;99.90
12700;DHT22;6414;49.570;6.060;2022-10-23T16:45:26;14.00;99.90
12700;DHT22;6414;49.570;6.060;2022-10-23T16:48:11;14.00;99.90
12700;DHT22;6414;49.570;6.060;2022-10-23T16:50:56;14.00;99.90
12700;DHT22;6414;49.570;6.060;2022-10-23T16:53:42;14.00;99.90
12700;DHT22;6414;49.570;6.060;2022-10-23T16:56:30;14.00;99.90
12700;DHT22;6414;49.570;6.060;2022-10-23T16:59:15;14.00;99.90
12700;DHT22;6414;49.570;6.060;2022-10-23T17:02:01;14.00;99.90
12700;DHT22;6414;49.570;6.060;2022-10-23T17:04:46;13.90;99.90
12700;DHT22;6414;49.570;6.060;2022-10-23T17:07:32;13.90;99.90
12700;DHT22;6414;49.570;6.060;2022-10-23T17:10:17;13.90;99.90
12700;DHT22;6414;49.570;6.060;2022-10-23T17:13:02;13.80;99.90
12700;DHT22;6414;49.570;6.060;2022-10-23T17:15:47;13.80;99.90
12700;DHT22;6414;49.570;6.060;2022-10-23T17:18:35;13.80;99.90
12700;DHT22;6414;49.570;6.060;2022-10-23T17:21:19;13.80;99.90
12700;DHT22;6414;49.570;6.060;2022-10-23T17:24:04;13.80;99.90
12700;DHT22;6414;49.570;6.060;2022-10-23T17:26:50;13.80;99.90
12700;DHT22;6414;49.570;6.060;2022-10-23T17:29:35;13.80;99.90
12700;DHT22;6414;49.570;6.060;2022-10-23T17:32:20;13.80;99.90
12700;DHT22;6414;49.570;6.060;2022-10-23T17:35:05;13.90;99.90
12700;DHT22;6414;49.570;6.060;2022-10-23T17:37:51;14.00;99.90
12700;DHT22;6414;49.570;6.060;2022-10-23T17:40:36;13.90;99.90
12700;DHT22;6414;49.570;6.060;2022-10-23T17:43:22;13.90;99.90
12700;DHT22;6414;49.570;6.060;2022-10-23T17:46:09;13.90;99.90
12700;DHT22;6414;49.570;6.060;2022-10-23T17:48:55;14.00;99.90
12700;DHT22;6414;49.570;6.060;2022-10-23T17:51:38;13.90;99.90
12700;DHT22;6414;49.570;6.060;2022-10-23T17:54:24;13.90;99.90
12700;DHT22;6414;49.570;6.060;2022-10-23T17:57:09;14.00;99.90
12700;DHT22;6414;49.570;6.060;2022-10-23T17:59:54;13.90;99.90
12700;DHT22;6414;49.570;6.060;2022-10-23T18:02:40;13.90;99.90
12700;DHT22;6414;49.570;6.060;2022-10-23T18:05:26;14.00;99.90
12700;DHT22;6414;49.570;6.060;2022-10-23T18:08:11;14.00;99.90
12700;DHT22;6414;49.570;6.060;2022-10-23T18:10:57;14.10;99.90
12700;DHT22;6414;49.570;6.060;2022-10-23T18:13:42;14.10;99.90
12700;DHT22;6414;49.570;6.060;2022-10-23T18:16:28;14.20;99.90
12700;DHT22;6414;49.570;6.060;2022-10-23T18:19:14;14.20;99.90
12700;DHT22;6414;49.570;6.060;2022-10-23T18:21:58;14.20;99.90
12700;DHT22;6414;49.570;6.060;2022-10-23T18:24:44;14.20;99.90
12700;DHT22;6414;49.570;6.060;2022-10-23T18:27:29;14.20;99.90
12700;DHT22;6414;49.570;6.060;2022-10-23T18:30:15;14.30;99.90
12700;DHT22;6414;49.570;6.060;2022-10-23T18:33:03;14.30;99.90
12700;DHT22;6414;49.570;6.060;2022-10-23T18:35:48;14.30;99.90
12700;DHT22;6414;49.570;6.060;2022-10-23T18:38:34;14.20;99.90
12700;DHT22;6414;49.570;6.060;2022-10-23T18:41:19;14.10;99.90
12700;DHT22;6414;49.570;6.060;2022-10-23T18:44:06;14.20;99.90
12700;DHT22;6414;49.570;6.060;2022-10-23T18:46:52;14.40;99.90
12700;DHT22;6414;49.570;6.060;2022-10-23T18:49:37;14.40;99.90
12700;DHT22;6414;49.570;6.060;2022-10-23T18:52:22;14.50;99.90
12700;DHT22;6414;49.570;6.060;2022-10-23T18:55:08;14.50;99.90
12700;DHT22;6414;49.570;6.060;2022-10-23T18:57:53;14.50;99.90
12700;DHT22;6414;49.570;6.060;2022-10-23T19:00:40;14.30;99.90
12700;DHT22;6414;49.570;6.060;2022-10-23T19:03:24;14.20;99.90
12700;DHT22;6414;49.570;6.060;2022-10-23T19:06:10;14.20;99.90
12700;DHT22;6414;49.570;6.060;2022-10-23T19:08:55;14.20;99.90
12700;DHT22;6414;49.570;6.060;2022-10-23T19:11:41;14.00;99.90
12700;DHT22;6414;49.570;6.060;2022-10-23T19:14:26;13.90;99.90
12700;DHT22;6414;49.570;6.060;2022-10-23T19:17:24;13.80;99.90
12700;DHT22;6414;49.570;6.060;2022-10-23T19:20:10;13.70;99.90
12700;DHT22;6414;49.570;6.060;2022-10-23T19:22:54;13.50;99.90